sensor_id;sensor_type;location;lat;lon;timestamp;temperature;humidity
13229;DHT22;6680;53.220;10.402;2022-12-10T00:01:06;0.40;99.90
13229;DHT22;6680;53.220;10.402;2022-12-10T00:03:35;0.40;99.90
13229;DHT22;6680;53.220;10.402;2022-12-10T00:06:03;0.40;99.90
13229;DHT22;6680;53.220;10.402;2022-12-10T00:08:31;0.50;99.90
13229;DHT22;6680;53.220;10.402;2022-12-10T00:10:59;0.60;99.90
13229;DHT22;6680;53.220;10.402;2022-12-10T00:13:28;0.50;99.90
13229;DHT22;6680;53.220;10.402;2022-12-10T00:15:55;0.60;99.90
13229;DHT22;6680;53.220;10.402;2022-12-10T00:18:22;0.60;99.90
13229;DHT22;6680;53.220;10.402;2022-12-10T00:20:50;0.60;99.90
13229;DHT22;6680;53.220;10.402;2022-12-10T00:23:16;0.60;99.90
13229;DHT22;6680;53.220;10.402;2022-12-10T00:25:43;0.70;99.90
13229;DHT22;6680;53.220;10.402;2022-12-10T00:28:10;0.80;99.90
13229;DHT22;6680;53.220;10.402;2022-12-10T00:30:37;0.60;99.90
13229;DHT22;6680;53.220;10.402;2022-12-10T00:33:03;0.60;99.90
13229;DHT22;6680;53.220;10.402;2022-12-10T00:35:30;0.60;99.90
13229;DHT22;6680;53.220;10.402;2022-12-10T00:37:58;0.40;99.90
13229;DHT22;6680;53.220;10.402;2022-12-10T00:40:25;0.60;99.90
13229;DHT22;6680;53.220;10.402;2022-12-10T00:42:52;0.60;99.90
13229;DHT22;6680;53.220;10.402;2022-12-10T00:45:19;0.60;99.90
13229;DHT22;6680;53.220;10.402;2022-12-10T00:47:46;0.60;99.90
13229;DHT22;6680;53.220;10.402;2022-12-10T00:50:12;0.70;99.90
13229;DHT22;6680;53.220;10.402;2022-12-10T00:52:39;0.80;99.90
13229;DHT22;6680;53.220;10.402;2022-12-10T00:55:08;0.80;99.90
13229;DHT22;6680;53.220;10.402;2022-12-10T00:57:34;0.80;99.90
13229;DHT22;6680;53.220;10.402;2022-12-10T01:00:06;0.70;99.90
13229;DHT22;6680;53.220;10.402;2022-12-10T01:02:32;0.70;99.90
13229;DHT22;6680;53.220;10.402;2022-12-10T01:04:59;0.70;99.90
13229;DHT22;6680;53.220;10.402;2022-12-10T01:07:26;0.70;99.90
13229;DHT22;6680;53.220;10.402;2022-12-10T01:09:53;0.70;99.90
13229;DHT22;6680;53.220;10.402;2022-12-10T01:12:21;0.70;99.90
13229;DHT22;6680;53.220;10.402;2022-12-10T01:14:48;0.80;99.90
13229;DHT22;6680;53.220;10.402;2022-12-10T01:17:14;0.80;99.90
13229;DHT22;6680;53.220;10.402;2022-12-10T01:19:41;0.70;99.90
13229;DHT22;6680;53.220;10.402;2022-12-10T01:22:08;0.80;99.90
13229;DHT22;6680;53.220;10.402;2022-12-10T01:24:35;0.70;99.90
13229;DHT22;6680;53.220;10.402;2022-12-10T01:29:30;0.70;99.90
13229;DHT22;6680;53.220;10.402;2022-12-10T01:31:57;0.80;99.90
13229;DHT22;6680;53.220;10.402;2022-12-10T01:34:25;0.80;99.90
13229;DHT22;6680;53.220;10.402;2022-12-10T01:36:53;0.80;99.90
13229;DHT22;6680;53.220;10.402;2022-12-10T01:39:22;0.80;99.90
13229;DHT22;6680;53.220;10.402;2022-12-10T01:41:51;0.80;99.90
13229;DHT22;6680;53.220;10.402;2022-12-10T01:47:23;0.80;99.90
13229;DHT22;6680;53.220;10.402;2022-12-10T01:49:50;0.70;99.90
13229;DHT22;6680;53.220;10.402;2022-12-10T01:52:18;0.70;99.90
13229;DHT22;6680;53.220;10.402;2022-12-10T01:54:46;0.80;99.90
13229;DHT22;6680;53.220;10.402;2022-12-10T01:57:14;0.80;99.90
13229;DHT22;6680;53.220;10.402;2022-12-10T01:59:43;0.80;99.90
13229;DHT22;6680;53.220;10.402;2022-12-10T02:02:15;0.70;99.90
13229;DHT22;6680;53.220;10.402;2022-12-10T02:04:51;0.80;99.90
13229;DHT22;6680;53.220;10.402;2022-12-10T02:07:27;0.80;99.90
13229;DHT22;6680;53.220;10.402;2022-12-10T02:10:04;0.80;99.90
13229;DHT22;6680;53.220;10.402;2022-12-10T02:12:41;0.80;99.90
13229;DHT22;6680;53.220;10.402;2022-12-10T02:15:14;0.80;99.90
13229;DHT22;6680;53.220;10.402;2022-12-10T02:17:45;0.80;99.90
13229;DHT22;6680;53.220;10.402;2022-12-10T02:20:18;0.90;99.90
13229;DHT22;6680;53.220;10.402;2022-12-10T02:22:50;0.90;99.90
13229;DHT22;6680;53.220;10.402;2022-12-10T02:25:20;0.90;99.90
13229;DHT22;6680;53.220;10.402;2022-12-10T02:27:53;0.90;99.90
13229;DHT22;6680;53.220;10.402;2022-12-10T02:30:22;0.90;99.90
13229;DHT22;6680;53.220;10.402;2022-12-10T02:32:50;1.00;99.90
13229;DHT22;6680;53.220;10.402;2022-12-10T02:35:21;1.00;99.90
13229;DHT22;6680;53.220;10.402;2022-12-10T02:37:52;1.00;99.90
13229;DHT22;6680;53.220;10.402;2022-12-10T02:40:24;1.00;99.90
13229;DHT22;6680;53.220;10.402;2022-12-10T02:42:52;1.00;99.90
13229;DHT22;6680;53.220;10.402;2022-12-10T02:45:23;1.00;99.90
13229;DHT22;6680;53.220;10.402;2022-12-10T02:47:54;1.00;99.90
13229;DHT22;6680;53.220;10.402;2022-12-10T02:50:22;1.00;99.90
13229;DHT22;6680;53.220;10.402;2022-12-10T02:52:50;1.00;99.90
13229;DHT22;6680;53.220;10.402;2022-12-10T02:55:18;1.00;99.90
13229;DHT22;6680;53.220;10.402;2022-12-10T02:57:55;1.00;99.90
13229;DHT22;6680;53.220;10.402;2022-12-10T03:00:24;1.00;99.90
13229;DHT22;6680;53.220;10.402;2022-12-10T03:03:05;0.90;99.90
13229;DHT22;6680;53.220;10.402;2022-12-10T03:05:39;1.00;99.90
13229;DHT22;6680;53.220;10.402;2022-12-10T03:08:12;0.90;99.90
13229;DHT22;6680;53.220;10.402;2022-12-10T03:10:43;1.00;99.90
13229;DHT22;6680;53.220;10.402;2022-12-10T03:13:14;1.00;99.90
13229;DHT22;6680;53.220;10.402;2022-12-10T03:15:44;1.00;99.90
13229;DHT22;6680;53.220;10.402;2022-12-10T03:18:12;1.00;99.90
13229;DHT22;6680;53.220;10.402;2022-12-10T03:20:44;0.90;99.90
13229;DHT22;6680;53.220;10.402;2022-12-10T03:23:16;0.90;99.90
13229;DHT22;6680;53.220;10.402;2022-12-10T03:25:44;0.80;99.90
13229;DHT22;6680;53.220;10.402;2022-12-10T03:28:13;0.80;99.90
13229;DHT22;6680;53.220;10.402;2022-12-10T03:30:42;0.80;99.90
13229;DHT22;6680;53.220;10.402;2022-12-10T03:33:10;0.80;99.90
13229;DHT22;6680;53.220;10.402;2022-12-10T03:35:38;0.90;99.90
13229;DHT22;6680;53.220;10.402;2022-12-10T03:38:06;0.80;99.90
13229;DHT22;6680;53.220;10.402;2022-12-10T03:40:33;0.90;99.90
13229;DHT22;6680;53.220;10.402;2022-12-10T03:42:59;0.90;99.90
13229;DHT22;6680;53.220;10.402;2022-12-10T03:45:26;0.90;99.90
13229;DHT22;6680;53.220;10.402;2022-12-10T03:47:55;0.90;99.90
13229;DHT22;6680;53.220;10.402;2022-12-10T03:52:49;0.80;99.90
13229;DHT22;6680;53.220;10.402;2022-12-10T03:55:15;0.70;99.90
13229;DHT22;6680;53.220;10.402;2022-12-10T03:57:42;0.70;99.90
13229;DHT22;6680;53.220;10.402;2022-12-10T04:00:10;0.80;99.90
13229;DHT22;6680;53.220;10.402;2022-12-10T04:02:37;0.80;99.90
13229;DHT22;6680;53.220;10.402;2022-12-10T04:05:06;0.80;99.90
13229;DHT22;6680;53.220;10.402;2022-12-10T04:07:33;0.80;99.90
13229;DHT22;6680;53.220;10.402;2022-12-10T04:10:00;0.80;99.90
13229;DHT22;6680;53.220;10.402;2022-12-10T04:12:27;0.90;99.90
13229;DHT22;6680;53.220;10.402;2022-12-10T04:17:38;0.90;99.90
13229;DHT22;6680;53.220;10.402;2022-12-10T04:20:07;0.90;99.90
13229;DHT22;6680;53.220;10.402;2022-12-10T04:22:54;0.80;99.90
13229;DHT22;6680;53.220;10.402;2022-12-10T04:25:39;0.80;99.90
13229;DHT22;6680;53.220;10.402;2022-12-10T04:28:23;0.80;99.90
13229;DHT22;6680;53.220;10.402;2022-12-10T04:30:50;0.80;99.90
13229;DHT22;6680;53.220;10.402;2022-12-10T04:33:17;0.80;99.90
13229;DHT22;6680;53.220;10.402;2022-12-10T04:35:45;0.80;99.90
13229;DHT22;6680;53.220;10.402;2022-12-10T04:38:12;0.70;99.90
13229;DHT22;6680;53.220;10.402;2022-12-10T04:40:38;0.80;99.90
13229;DHT22;6680;53.220;10.402;2022-12-10T04:43:05;0.80;99.90
13229;DHT22;6680;53.220;10.402;2022-12-10T04:45:33;0.80;99.90
13229;DHT22;6680;53.220;10.402;2022-12-10T04:50:27;0.70;99.90
13229;DHT22;6680;53.220;10.402;2022-12-10T04:52:55;0.80;99.90
13229;DHT22;6680;53.220;10.402;2022-12-10T04:55:22;0.70;99.90
13229;DHT22;6680;53.220;10.402;2022-12-10T04:57:49;0.70;99.90
13229;DHT22;6680;53.220;10.402;2022-12-10T05:00:16;0.70;99.90
13229;DHT22;6680;53.220;10.402;2022-12-10T05:02:43;0.60;99.90
13229;DHT22;6680;53.220;10.402;2022-12-10T05:05:10;0.60;99.90
13229;DHT22;6680;53.220;10.402;2022-12-10T05:07:37;0.60;99.90
13229;DHT22;6680;53.220;10.402;2022-12-10T05:10:06;0.60;99.90
13229;DHT22;6680;53.220;10.402;2022-12-10T05:12:33;0.60;99.90
13229;DHT22;6680;53.220;10.402;2022-12-10T05:15:00;0.70;99.90
13229;DHT22;6680;53.220;10.402;2022-12-10T05:17:27;0.60;99.90
13229;DHT22;6680;53.220;10.402;2022-12-10T05:19:53;0.60;99.90
13229;DHT22;6680;53.220;10.402;2022-12-10T05:22:20;0.70;99.90
13229;DHT22;6680;53.220;10.402;2022-12-10T05:25:07;0.70;99.90
13229;DHT22;6680;53.220;10.402;2022-12-10T05:27:34;0.70;99.90
13229;DHT22;6680;53.220;10.402;2022-12-10T05:30:01;0.70;99.90
13229;DHT22;6680;53.220;10.402;2022-12-10T05:34:54;0.80;99.90
13229;DHT22;6680;53.220;10.402;2022-12-10T05:37:21;0.70;99.90
13229;DHT22;6680;53.220;10.402;2022-12-10T05:39:48;0.70;99.90
13229;DHT22;6680;53.220;10.402;2022-12-10T05:42:16;0.80;99.90
13229;DHT22;6680;53.220;10.402;2022-12-10T05:47:10;0.80;99.90
13229;DHT22;6680;53.220;10.402;2022-12-10T05:49:37;0.80;99.90
13229;DHT22;6680;53.220;10.402;2022-12-10T05:52:04;0.80;99.90
13229;DHT22;6680;53.220;10.402;2022-12-10T05:54:30;0.80;99.90
13229;DHT22;6680;53.220;10.402;2022-12-10T05:56:57;0.80;99.90
13229;DHT22;6680;53.220;10.402;2022-12-10T05:59:25;0.80;99.90
13229;DHT22;6680;53.220;10.402;2022-12-10T06:01:52;0.80;99.90
13229;DHT22;6680;53.220;10.402;2022-12-10T06:04:18;0.90;99.90
13229;DHT22;6680;53.220;10.402;2022-12-10T06:06:45;0.90;99.90
13229;DHT22;6680;53.220;10.402;2022-12-10T06:09:14;0.80;99.90
13229;DHT22;6680;53.220;10.402;2022-12-10T06:11:41;0.90;99.90
13229;DHT22;6680;53.220;10.402;2022-12-10T06:14:09;0.80;99.90
13229;DHT22;6680;53.220;10.402;2022-12-10T06:16:38;0.80;99.90
13229;DHT22;6680;53.220;10.402;2022-12-10T06:19:05;0.90;99.90
13229;DHT22;6680;53.220;10.402;2022-12-10T06:21:32;0.90;99.90
13229;DHT22;6680;53.220;10.402;2022-12-10T06:23:59;0.90;99.90
13229;DHT22;6680;53.220;10.402;2022-12-10T06:26:26;0.90;99.90
13229;DHT22;6680;53.220;10.402;2022-12-10T06:28:53;0.80;99.90
13229;DHT22;6680;53.220;10.402;2022-12-10T06:31:21;0.80;99.90
13229;DHT22;6680;53.220;10.402;2022-12-10T06:33:50;0.80;99.90
13229;DHT22;6680;53.220;10.402;2022-12-10T06:36:18;0.80;99.90
13229;DHT22;6680;53.220;10.402;2022-12-10T06:38:45;0.90;99.90
13229;DHT22;6680;53.220;10.402;2022-12-10T06:41:14;0.80;99.90
13229;DHT22;6680;53.220;10.402;2022-12-10T06:43:41;0.90;99.90
13229;DHT22;6680;53.220;10.402;2022-12-10T06:46:10;1.00;99.90
13229;DHT22;6680;53.220;10.402;2022-12-10T06:48:38;1.00;99.90
13229;DHT22;6680;53.220;10.402;2022-12-10T06:51:07;1.10;99.90
13229;DHT22;6680;53.220;10.402;2022-12-10T06:53:36;1.00;99.90
13229;DHT22;6680;53.220;10.402;2022-12-10T06:56:04;1.00;99.90
13229;DHT22;6680;53.220;10.402;2022-12-10T06:58:32;1.00;99.90
13229;DHT22;6680;53.220;10.402;2022-12-10T07:01:03;0.90;99.90
13229;DHT22;6680;53.220;10.402;2022-12-10T07:03:30;1.00;99.90
13229;DHT22;6680;53.220;10.402;2022-12-10T07:05:57;1.00;99.90
13229;DHT22;6680;53.220;10.402;2022-12-10T07:08:25;0.90;99.90
13229;DHT22;6680;53.220;10.402;2022-12-10T07:10:52;1.00;99.90
13229;DHT22;6680;53.220;10.402;2022-12-10T07:13:19;1.00;99.90
13229;DHT22;6680;53.220;10.402;2022-12-10T07:15:46;1.00;99.90
13229;DHT22;6680;53.220;10.402;2022-12-10T07:18:12;1.00;99.90
13229;DHT22;6680;53.220;10.402;2022-12-10T07:20:39;1.00;99.90
13229;DHT22;6680;53.220;10.402;2022-12-10T07:23:06;1.00;99.90
13229;DHT22;6680;53.220;10.402;2022-12-10T07:25:34;1.00;99.90
13229;DHT22;6680;53.220;10.402;2022-12-10T07:28:01;0.90;99.90
13229;DHT22;6680;53.220;10.402;2022-12-10T07:32:55;1.00;99.90
13229;DHT22;6680;53.220;10.402;2022-12-10T07:35:21;0.90;99.90
13229;DHT22;6680;53.220;10.402;2022-12-10T07:37:48;0.90;99.90
13229;DHT22;6680;53.220;10.402;2022-12-10T07:40:15;0.90;99.90
13229;DHT22;6680;53.220;10.402;2022-12-10T07:42:43;0.90;99.90
13229;DHT22;6680;53.220;10.402;2022-12-10T07:45:10;1.00;99.90
13229;DHT22;6680;53.220;10.402;2022-12-10T07:50:05;1.00;99.90
13229;DHT22;6680;53.220;10.402;2022-12-10T07:52:32;0.90;99.90
13229;DHT22;6680;53.220;10.402;2022-12-10T07:54:59;0.90;99.90
13229;DHT22;6680;53.220;10.402;2022-12-10T07:57:26;0.90;99.90
13229;DHT22;6680;53.220;10.402;2022-12-10T07:59:55;0.90;99.90
13229;DHT22;6680;53.220;10.402;2022-12-10T08:02:23;0.90;99.90
13229;DHT22;6680;53.220;10.402;2022-12-10T08:04:50;0.90;99.90
13229;DHT22;6680;53.220;10.402;2022-12-10T08:07:17;0.80;99.90
13229;DHT22;6680;53.220;10.402;2022-12-10T08:09:44;0.80;99.90
13229;DHT22;6680;53.220;10.402;2022-12-10T08:12:11;0.80;99.90
13229;DHT22;6680;53.220;10.402;2022-12-10T08:14:37;0.80;99.90
13229;DHT22;6680;53.220;10.402;2022-12-10T08:17:06;0.90;99.90
13229;DHT22;6680;53.220;10.402;2022-12-10T08:19:32;0.80;99.90
13229;DHT22;6680;53.220;10.402;2022-12-10T08:21:59;0.70;99.90
13229;DHT22;6680;53.220;10.402;2022-12-10T08:24:26;1.00;99.90
13229;DHT22;6680;53.220;10.402;2022-12-10T08:26:53;0.80;99.90
13229;DHT22;6680;53.220;10.402;2022-12-10T08:29:20;0.80;99.90
13229;DHT22;6680;53.220;10.402;2022-12-10T08:31:47;0.70;99.90
13229;DHT22;6680;53.220;10.402;2022-12-10T08:34:16;0.80;99.90
13229;DHT22;6680;53.220;10.402;2022-12-10T08:36:44;0.80;99.90
13229;DHT22;6680;53.220;10.402;2022-12-10T08:39:11;0.70;99.90
13229;DHT22;6680;53.220;10.402;2022-12-10T08:41:40;0.70;99.90
13229;DHT22;6680;53.220;10.402;2022-12-10T08:44:08;0.80;99.90
13229;DHT22;6680;53.220;10.402;2022-12-10T08:46:34;0.80;99.90
13229;DHT22;6680;53.220;10.402;2022-12-10T08:49:01;0.90;99.90
13229;DHT22;6680;53.220;10.402;2022-12-10T08:51:29;0.80;99.90
13229;DHT22;6680;53.220;10.402;2022-12-10T08:53:56;0.90;99.90
13229;DHT22;6680;53.220;10.402;2022-12-10T08:56:23;0.90;99.90
13229;DHT22;6680;53.220;10.402;2022-12-10T08:58:50;0.90;99.90
13229;DHT22;6680;53.220;10.402;2022-12-10T09:01:18;0.90;99.90
13229;DHT22;6680;53.220;10.402;2022-12-10T09:03:45;0.90;99.90
13229;DHT22;6680;53.220;10.402;2022-12-10T09:06:15;1.00;99.90
13229;DHT22;6680;53.220;10.402;2022-12-10T09:08:43;0.90;99.90
13229;DHT22;6680;53.220;10.402;2022-12-10T09:11:13;1.00;99.90
13229;DHT22;6680;53.220;10.402;2022-12-10T09:13:40;1.00;99.90
13229;DHT22;6680;53.220;10.402;2022-12-10T09:16:07;1.00;99.90
13229;DHT22;6680;53.220;10.402;2022-12-10T09:21:04;1.00;99.90
13229;DHT22;6680;53.220;10.402;2022-12-10T09:23:31;1.00;99.90
13229;DHT22;6680;53.220;10.402;2022-12-10T09:25:59;1.10;99.90
13229;DHT22;6680;53.220;10.402;2022-12-10T09:28:26;1.10;99.90
13229;DHT22;6680;53.220;10.402;2022-12-10T09:30:57;1.10;99.90
13229;DHT22;6680;53.220;10.402;2022-12-10T09:33:24;1.10;99.90
13229;DHT22;6680;53.220;10.402;2022-12-10T09:35:51;1.10;99.90
13229;DHT22;6680;53.220;10.402;2022-12-10T09:38:18;1.10;99.90
13229;DHT22;6680;53.220;10.402;2022-12-10T09:40:48;1.10;99.90
13229;DHT22;6680;53.220;10.402;2022-12-10T09:43:23;1.10;99.90
13229;DHT22;6680;53.220;10.402;2022-12-10T09:46:01;1.00;99.90
13229;DHT22;6680;53.220;10.402;2022-12-10T09:48:45;1.10;99.90
13229;DHT22;6680;53.220;10.402;2022-12-10T09:51:21;1.10;99.90
13229;DHT22;6680;53.220;10.402;2022-12-10T09:53:48;1.10;99.90
13229;DHT22;6680;53.220;10.402;2022-12-10T09:56:21;1.10;99.90
13229;DHT22;6680;53.220;10.402;2022-12-10T09:58:49;1.10;99.90
13229;DHT22;6680;53.220;10.402;2022-12-10T10:01:19;1.10;99.90
13229;DHT22;6680;53.220;10.402;2022-12-10T10:03:49;1.20;99.90
13229;DHT22;6680;53.220;10.402;2022-12-10T10:06:16;1.10;99.90
13229;DHT22;6680;53.220;10.402;2022-12-10T10:08:45;1.00;99.90
13229;DHT22;6680;53.220;10.402;2022-12-10T10:11:16;0.90;99.90
13229;DHT22;6680;53.220;10.402;2022-12-10T10:13:46;1.00;99.90
13229;DHT22;6680;53.220;10.402;2022-12-10T10:16:23;1.10;99.90
13229;DHT22;6680;53.220;10.402;2022-12-10T10:18:56;1.10;99.90
13229;DHT22;6680;53.220;10.402;2022-12-10T10:21:27;1.10;99.90
13229;DHT22;6680;53.220;10.402;2022-12-10T10:23:55;1.20;99.90
13229;DHT22;6680;53.220;10.402;2022-12-10T10:26:24;1.20;99.90
13229;DHT22;6680;53.220;10.402;2022-12-10T10:28:55;1.20;99.90
13229;DHT22;6680;53.220;10.402;2022-12-10T10:31:26;1.20;99.90
13229;DHT22;6680;53.220;10.402;2022-12-10T10:33:55;1.20;99.90
13229;DHT22;6680;53.220;10.402;2022-12-10T10:36:24;1.20;99.90
13229;DHT22;6680;53.220;10.402;2022-12-10T10:38:52;1.20;99.90
13229;DHT22;6680;53.220;10.402;2022-12-10T10:41:19;1.30;99.90
13229;DHT22;6680;53.220;10.402;2022-12-10T10:43:46;1.30;99.90
13229;DHT22;6680;53.220;10.402;2022-12-10T10:46:21;1.30;99.90
13229;DHT22;6680;53.220;10.402;2022-12-10T10:48:50;1.30;99.90
13229;DHT22;6680;53.220;10.402;2022-12-10T10:51:19;1.30;99.90
13229;DHT22;6680;53.220;10.402;2022-12-10T10:53:49;1.40;99.90
13229;DHT22;6680;53.220;10.402;2022-12-10T10:56:19;1.30;99.90
13229;DHT22;6680;53.220;10.402;2022-12-10T10:58:53;1.30;99.90
13229;DHT22;6680;53.220;10.402;2022-12-10T11:01:23;1.40;99.90
13229;DHT22;6680;53.220;10.402;2022-12-10T11:03:55;1.20;99.90
13229;DHT22;6680;53.220;10.402;2022-12-10T11:06:22;1.20;99.90
13229;DHT22;6680;53.220;10.402;2022-12-10T11:08:55;1.20;99.90
13229;DHT22;6680;53.220;10.402;2022-12-10T11:11:31;1.20;99.90
13229;DHT22;6680;53.220;10.402;2022-12-10T11:14:13;1.20;99.90
13229;DHT22;6680;53.220;10.402;2022-12-10T11:16:41;1.20;99.90
13229;DHT22;6680;53.220;10.402;2022-12-10T11:19:19;1.10;99.90
13229;DHT22;6680;53.220;10.402;2022-12-10T11:21:47;1.10;99.90
13229;DHT22;6680;53.220;10.402;2022-12-10T11:24:17;1.00;99.90
13229;DHT22;6680;53.220;10.402;2022-12-10T11:26:57;1.00;99.90
13229;DHT22;6680;53.220;10.402;2022-12-10T11:29:36;1.10;99.90
13229;DHT22;6680;53.220;10.402;2022-12-10T11:32:16;1.10;99.90
13229;DHT22;6680;53.220;10.402;2022-12-10T11:34:57;1.10;99.90
13229;DHT22;6680;53.220;10.402;2022-12-10T11:37:31;1.10;99.90
13229;DHT22;6680;53.220;10.402;2022-12-10T11:40:19;1.10;99.90
13229;DHT22;6680;53.220;10.402;2022-12-10T11:42:57;1.00;99.90
13229;DHT22;6680;53.220;10.402;2022-12-10T11:45:31;1.10;99.90
13229;DHT22;6680;53.220;10.402;2022-12-10T11:48:14;1.10;99.90
13229;DHT22;6680;53.220;10.402;2022-12-10T11:50:47;1.00;99.90
13229;DHT22;6680;53.220;10.402;2022-12-10T11:53:31;0.90;99.90
13229;DHT22;6680;53.220;10.402;2022-12-10T11:56:09;0.90;99.90
13229;DHT22;6680;53.220;10.402;2022-12-10T11:58:50;0.90;99.90
13229;DHT22;6680;53.220;10.402;2022-12-10T12:01:28;1.00;99.90
13229;DHT22;6680;53.220;10.402;2022-12-10T12:04:30;1.00;99.90
13229;DHT22;6680;53.220;10.402;2022-12-10T12:07:23;0.90;99.90
13229;DHT22;6680;53.220;10.402;2022-12-10T12:10:01;0.80;99.90
13229;DHT22;6680;53.220;10.402;2022-12-10T12:12:38;0.80;99.90
13229;DHT22;6680;53.220;10.402;2022-12-10T12:15:15;0.90;99.90
13229;DHT22;6680;53.220;10.402;2022-12-10T12:17:47;1.00;99.90
13229;DHT22;6680;53.220;10.402;2022-12-10T12:20:19;1.10;99.90
13229;DHT22;6680;53.220;10.402;2022-12-10T12:22:52;1.10;99.90
13229;DHT22;6680;53.220;10.402;2022-12-10T12:25:25;1.10;99.90
13229;DHT22;6680;53.220;10.402;2022-12-10T12:27:57;1.00;99.90
13229;DHT22;6680;53.220;10.402;2022-12-10T12:30:25;1.00;99.90
13229;DHT22;6680;53.220;10.402;2022-12-10T12:32:57;1.00;99.90
13229;DHT22;6680;53.220;10.402;2022-12-10T12:35:32;1.00;99.90
13229;DHT22;6680;53.220;10.402;2022-12-10T12:38:14;0.80;99.90
13229;DHT22;6680;53.220;10.402;2022-12-10T12:40:50;0.90;99.90
13229;DHT22;6680;53.220;10.402;2022-12-10T12:43:20;0.90;99.90
13229;DHT22;6680;53.220;10.402;2022-12-10T12:45:49;0.80;99.90
13229;DHT22;6680;53.220;10.402;2022-12-10T12:48:23;0.80;99.90
13229;DHT22;6680;53.220;10.402;2022-12-10T12:50:57;0.70;99.90
13229;DHT22;6680;53.220;10.402;2022-12-10T12:53:26;0.70;99.90
13229;DHT22;6680;53.220;10.402;2022-12-10T12:55:58;0.80;99.90
13229;DHT22;6680;53.220;10.402;2022-12-10T12:58:33;0.80;99.90
13229;DHT22;6680;53.220;10.402;2022-12-10T13:01:12;0.90;99.90
13229;DHT22;6680;53.220;10.402;2022-12-10T13:03:42;0.90;99.90
13229;DHT22;6680;53.220;10.402;2022-12-10T13:06:15;0.90;99.90
13229;DHT22;6680;53.220;10.402;2022-12-10T13:08:46;0.90;99.90
13229;DHT22;6680;53.220;10.402;2022-12-10T13:11:24;0.80;99.90
13229;DHT22;6680;53.220;10.402;2022-12-10T13:17:07;0.80;99.90
13229;DHT22;6680;53.220;10.402;2022-12-10T13:19:35;0.80;99.90
13229;DHT22;6680;53.220;10.402;2022-12-10T13:22:09;0.80;99.90
13229;DHT22;6680;53.220;10.402;2022-12-10T13:25:04;0.80;99.90
13229;DHT22;6680;53.220;10.402;2022-12-10T13:27:33;0.80;99.90
13229;DHT22;6680;53.220;10.402;2022-12-10T13:30:04;1.00;99.90
13229;DHT22;6680;53.220;10.402;2022-12-10T13:32:46;0.90;99.90
13229;DHT22;6680;53.220;10.402;2022-12-10T13:35:26;0.90;99.90
13229;DHT22;6680;53.220;10.402;2022-12-10T13:37:55;0.80;99.90
13229;DHT22;6680;53.220;10.402;2022-12-10T13:40:27;0.80;99.90
13229;DHT22;6680;53.220;10.402;2022-12-10T13:43:26;0.70;99.90
13229;DHT22;6680;53.220;10.402;2022-12-10T13:46:22;0.70;99.90
13229;DHT22;6680;53.220;10.402;2022-12-10T13:48:49;0.70;99.90
13229;DHT22;6680;53.220;10.402;2022-12-10T13:51:37;0.70;99.90
13229;DHT22;6680;53.220;10.402;2022-12-10T13:57:20;0.50;99.90
13229;DHT22;6680;53.220;10.402;2022-12-10T13:59:57;0.60;99.90
13229;DHT22;6680;53.220;10.402;2022-12-10T14:02:47;0.70;99.90
13229;DHT22;6680;53.220;10.402;2022-12-10T14:05:27;0.70;99.90
13229;DHT22;6680;53.220;10.402;2022-12-10T14:08:00;0.60;99.90
13229;DHT22;6680;53.220;10.402;2022-12-10T14:10:32;0.80;99.90
13229;DHT22;6680;53.220;10.402;2022-12-10T14:13:02;0.80;99.90
13229;DHT22;6680;53.220;10.402;2022-12-10T14:15:30;0.70;99.90
13229;DHT22;6680;53.220;10.402;2022-12-10T14:18:01;0.70;99.90
13229;DHT22;6680;53.220;10.402;2022-12-10T14:20:30;0.50;99.90
13229;DHT22;6680;53.220;10.402;2022-12-10T14:23:02;0.50;99.90
13229;DHT22;6680;53.220;10.402;2022-12-10T14:25:45;0.40;99.90
13229;DHT22;6680;53.220;10.402;2022-12-10T14:28:14;0.30;99.90
13229;DHT22;6680;53.220;10.402;2022-12-10T14:30:44;0.40;99.90
13229;DHT22;6680;53.220;10.402;2022-12-10T14:33:14;0.40;99.90
13229;DHT22;6680;53.220;10.402;2022-12-10T14:35:42;0.40;99.90
13229;DHT22;6680;53.220;10.402;2022-12-10T14:38:17;0.40;99.90
13229;DHT22;6680;53.220;10.402;2022-12-10T14:40:44;0.50;99.90
13229;DHT22;6680;53.220;10.402;2022-12-10T14:43:15;0.60;99.90
13229;DHT22;6680;53.220;10.402;2022-12-10T14:45:46;0.60;99.90
13229;DHT22;6680;53.220;10.402;2022-12-10T14:48:15;0.70;99.90
13229;DHT22;6680;53.220;10.402;2022-12-10T14:50:43;0.60;99.90
13229;DHT22;6680;53.220;10.402;2022-12-10T14:53:13;0.60;99.90
13229;DHT22;6680;53.220;10.402;2022-12-10T14:55:40;0.60;99.90
13229;DHT22;6680;53.220;10.402;2022-12-10T14:58:16;0.70;99.90
13229;DHT22;6680;53.220;10.402;2022-12-10T15:00:44;0.80;99.90
13229;DHT22;6680;53.220;10.402;2022-12-10T15:03:22;0.70;99.90
13229;DHT22;6680;53.220;10.402;2022-12-10T15:05:55;0.90;99.90
13229;DHT22;6680;53.220;10.402;2022-12-10T15:08:22;1.10;99.90
13229;DHT22;6680;53.220;10.402;2022-12-10T15:10:54;1.20;99.90
13229;DHT22;6680;53.220;10.402;2022-12-10T15:13:32;1.10;99.90
13229;DHT22;6680;53.220;10.402;2022-12-10T15:15:59;1.10;99.90
13229;DHT22;6680;53.220;10.402;2022-12-10T15:18:29;1.00;99.90
13229;DHT22;6680;53.220;10.402;2022-12-10T15:21:05;0.90;99.90
13229;DHT22;6680;53.220;10.402;2022-12-10T15:23:35;0.80;99.90
13229;DHT22;6680;53.220;10.402;2022-12-10T15:26:09;0.70;99.90
13229;DHT22;6680;53.220;10.402;2022-12-10T15:28:41;0.60;99.90
13229;DHT22;6680;53.220;10.402;2022-12-10T15:31:13;0.40;99.90
13229;DHT22;6680;53.220;10.402;2022-12-10T15:33:45;0.30;99.90
13229;DHT22;6680;53.220;10.402;2022-12-10T15:36:18;0.20;99.90
13229;DHT22;6680;53.220;10.402;2022-12-10T15:38:46;0.10;99.90
13229;DHT22;6680;53.220;10.402;2022-12-10T15:41:42;0.10;99.90
13229;DHT22;6680;53.220;10.402;2022-12-10T15:44:26;0.10;99.90
13229;DHT22;6680;53.220;10.402;2022-12-10T15:46:59;0.20;99.90
13229;DHT22;6680;53.220;10.402;2022-12-10T15:49:26;0.10;99.90
13229;DHT22;6680;53.220;10.402;2022-12-10T15:51:53;0.20;99.90
13229;DHT22;6680;53.220;10.402;2022-12-10T15:54:22;0.20;99.90
13229;DHT22;6680;53.220;10.402;2022-12-10T15:56:49;0.20;99.90
13229;DHT22;6680;53.220;10.402;2022-12-10T15:59:15;0.20;99.90
13229;DHT22;6680;53.220;10.402;2022-12-10T16:01:44;0.20;99.90
13229;DHT22;6680;53.220;10.402;2022-12-10T16:04:11;0.30;99.90
13229;DHT22;6680;53.220;10.402;2022-12-10T16:06:39;0.30;99.90
13229;DHT22;6680;53.220;10.402;2022-12-10T16:11:33;0.40;99.90
13229;DHT22;6680;53.220;10.402;2022-12-10T16:14:00;0.50;99.90
13229;DHT22;6680;53.220;10.402;2022-12-10T16:16:27;0.60;99.90
13229;DHT22;6680;53.220;10.402;2022-12-10T16:18:56;0.60;99.90
13229;DHT22;6680;53.220;10.402;2022-12-10T16:21:22;0.50;99.90
13229;DHT22;6680;53.220;10.402;2022-12-10T16:23:49;0.50;99.90
13229;DHT22;6680;53.220;10.402;2022-12-10T16:26:19;0.40;99.90
13229;DHT22;6680;53.220;10.402;2022-12-10T16:28:46;0.50;99.90
13229;DHT22;6680;53.220;10.402;2022-12-10T16:31:16;0.50;99.90
13229;DHT22;6680;53.220;10.402;2022-12-10T16:33:43;0.50;99.90
13229;DHT22;6680;53.220;10.402;2022-12-10T16:36:11;0.50;99.90
13229;DHT22;6680;53.220;10.402;2022-12-10T16:38:39;0.50;99.90